createdAt,value
2018-02-21T00:01:16.464Z,2.10
2018-02-21T00:03:43.919Z,2.10
2018-02-21T00:06:11.385Z,2.10
2018-02-21T00:08:38.917Z,2.00
2018-02-21T00:11:07.164Z,1.90
2018-02-21T00:13:34.640Z,1.90
2018-02-21T00:16:02.874Z,1.90
2018-02-21T00:18:30.357Z,1.80
2018-02-21T00:20:57.824Z,1.90
2018-02-21T00:23:26.564Z,1.80
2018-02-21T00:25:54.125Z,1.80
2018-02-21T00:28:21.594Z,1.80
2018-02-21T00:30:49.077Z,1.80
2018-02-21T00:33:16.554Z,1.90
2018-02-21T00:35:44.787Z,1.80
2018-02-21T00:38:12.288Z,1.80
2018-02-21T00:40:40.599Z,1.60
2018-02-21T00:43:08.133Z,1.60
2018-02-21T00:45:35.636Z,1.60
2018-02-21T00:48:03.103Z,1.60
2018-02-21T00:50:30.578Z,1.60
2018-02-21T00:52:58.047Z,1.60
2018-02-21T00:55:26.290Z,1.60
2018-02-21T00:57:55.273Z,1.50
2018-02-21T01:00:22.767Z,1.50
2018-02-21T01:02:51.001Z,1.50
2018-02-21T01:05:18.472Z,1.50
2018-02-21T01:07:45.980Z,1.60
2018-02-21T01:10:13.593Z,1.50
2018-02-21T01:12:41.159Z,1.60
2018-02-21T01:15:09.396Z,1.50
2018-02-21T01:17:36.966Z,1.50
2018-02-21T01:20:04.450Z,1.40
2018-02-21T01:22:31.912Z,1.50
2018-02-21T01:24:59.378Z,1.60
2018-02-21T01:27:27.694Z,1.50
2018-02-21T01:29:55.301Z,1.50
2018-02-21T01:32:22.858Z,1.60
2018-02-21T01:34:50.484Z,1.50
2018-02-21T01:37:17.993Z,1.60
2018-02-21T01:39:46.215Z,1.60
2018-02-21T01:42:13.717Z,1.60
2018-02-21T01:44:41.177Z,1.70
2018-02-21T01:47:09.549Z,1.70
2018-02-21T01:49:37.025Z,1.70
2018-02-21T01:52:05.305Z,1.50
2018-02-21T01:54:33.550Z,1.60
2018-02-21T01:57:01.017Z,1.50
2018-02-21T01:59:28.493Z,1.50
2018-02-21T02:01:56.743Z,1.50
2018-02-21T02:04:24.234Z,1.40
2018-02-21T02:06:51.808Z,1.40
2018-02-21T02:09:19.281Z,1.40
2018-02-21T02:11:46.881Z,1.40
2018-02-21T02:14:14.365Z,1.50
2018-02-21T02:16:42.655Z,1.10
2018-02-21T02:19:10.122Z,1.10
2018-02-21T02:21:37.609Z,1.10
2018-02-21T02:24:05.079Z,1.10
2018-02-21T02:26:32.557Z,1.20
2018-02-21T02:29:00.793Z,1.40
2018-02-21T02:31:28.271Z,1.40
2018-02-21T02:33:55.741Z,1.30
2018-02-21T02:36:23.213Z,1.30
2018-02-21T02:39:03.488Z,1.40
2018-02-21T02:41:31.114Z,1.40
2018-02-21T02:43:59.357Z,1.30
2018-02-21T02:46:26.836Z,1.30
2018-02-21T02:48:54.318Z,1.30
2018-02-21T02:51:22.548Z,1.20
2018-02-21T02:53:50.021Z,1.20
2018-02-21T02:56:18.281Z,0.90
2018-02-21T02:58:45.748Z,0.90
2018-02-21T03:01:15.498Z,1.00
2018-02-21T03:03:42.965Z,1.00
2018-02-21T03:06:10.933Z,1.10
2018-02-21T03:08:38.448Z,1.00
2018-02-21T03:11:05.964Z,0.90
2018-02-21T03:13:33.436Z,1.10
2018-02-21T03:16:00.925Z,1.20
2018-02-21T03:18:28.489Z,1.20
2018-02-21T03:20:55.960Z,1.30
2018-02-21T03:23:24.197Z,1.40
2018-02-21T03:25:51.669Z,1.40
2018-02-21T03:28:19.160Z,1.40
2018-02-21T03:30:47.386Z,1.40
2018-02-21T03:33:14.856Z,1.40
2018-02-21T03:35:42.316Z,1.40
2018-02-21T03:38:09.797Z,1.40
2018-02-21T03:40:38.060Z,1.50
2018-02-21T03:43:05.541Z,1.40
2018-02-21T03:45:33.028Z,1.50
2018-02-21T03:48:00.597Z,1.50
2018-02-21T03:50:28.065Z,1.50
2018-02-21T03:52:55.520Z,1.60
2018-02-21T03:55:23.002Z,1.50
2018-02-21T03:57:50.502Z,1.50
2018-02-21T04:00:17.980Z,1.50
2018-02-21T04:02:45.453Z,1.50
2018-02-21T04:05:12.917Z,1.50
2018-02-21T04:07:40.392Z,1.40
2018-02-21T04:10:08.665Z,1.50
2018-02-21T04:12:36.126Z,1.50
2018-02-21T04:15:04.371Z,1.60
2018-02-21T04:17:31.831Z,1.50
2018-02-21T04:19:59.309Z,1.50
2018-02-21T04:22:26.922Z,1.50
2018-02-21T04:24:54.483Z,1.50
2018-02-21T04:27:21.961Z,1.60
2018-02-21T04:29:49.430Z,1.50
2018-02-21T04:32:17.671Z,1.60
2018-02-21T04:34:45.145Z,1.60
2018-02-21T04:37:12.696Z,1.60
2018-02-21T04:39:40.286Z,1.70
2018-02-21T04:42:07.813Z,1.60
2018-02-21T04:44:35.299Z,1.70
2018-02-21T04:47:02.768Z,1.70
2018-02-21T04:49:30.236Z,1.70
2018-02-21T04:51:58.471Z,1.70
2018-02-21T04:54:28.725Z,1.70
2018-02-21T04:57:12.880Z,1.80
2018-02-21T04:59:56.834Z,1.90
2018-02-21T05:02:25.072Z,1.80
2018-02-21T05:04:53.017Z,1.80
2018-02-21T05:07:20.514Z,1.90
2018-02-21T05:09:48.748Z,1.90
2018-02-21T05:12:16.227Z,1.90
2018-02-21T05:14:43.696Z,2.00
2018-02-21T05:17:11.176Z,1.90
2018-02-21T05:19:39.408Z,2.00
2018-02-21T05:22:06.889Z,2.00
2018-02-21T05:24:34.344Z,2.00
2018-02-21T05:27:01.849Z,2.00
2018-02-21T05:29:29.309Z,2.00
2018-02-21T05:31:56.924Z,2.00
2018-02-21T05:34:24.399Z,2.00
2018-02-21T05:36:53.374Z,2.00
2018-02-21T05:39:21.634Z,2.10
2018-02-21T05:41:49.274Z,2.10
2018-02-21T05:44:16.826Z,2.10
2018-02-21T05:46:44.508Z,2.20
2018-02-21T05:49:12.076Z,2.10
2018-02-21T05:51:39.549Z,2.30
2018-02-21T05:54:07.114Z,2.20
2018-02-21T05:56:35.341Z,2.20
2018-02-21T05:59:02.842Z,2.20
2018-02-21T06:01:30.295Z,2.20
2018-02-21T06:03:58.557Z,2.30
2018-02-21T06:06:26.038Z,2.30
2018-02-21T06:08:54.360Z,2.30
2018-02-21T06:11:21.828Z,2.30
2018-02-21T06:13:49.309Z,2.30
2018-02-21T06:16:16.794Z,2.20
2018-02-21T06:18:45.040Z,2.20
2018-02-21T06:21:12.526Z,2.20
2018-02-21T06:23:40.769Z,2.20
2018-02-21T06:26:08.242Z,2.20
2018-02-21T06:28:35.720Z,2.30
2018-02-21T06:31:03.965Z,2.30
2018-02-21T06:33:31.446Z,2.30
2018-02-21T06:35:59.686Z,2.20
2018-02-21T06:38:30.713Z,2.20
2018-02-21T06:40:58.157Z,2.00
2018-02-21T06:43:25.678Z,1.60
2018-02-21T06:45:53.117Z,1.30
2018-02-21T06:48:20.583Z,1.40
2018-02-21T06:50:48.829Z,1.40
2018-02-21T06:53:16.309Z,1.40
2018-02-21T06:55:44.558Z,1.50
2018-02-21T06:58:12.062Z,1.50
2018-02-21T07:00:39.516Z,1.50
2018-02-21T07:03:07.754Z,1.40
2018-02-21T07:05:35.217Z,1.30
2018-02-21T07:08:02.697Z,1.40
2018-02-21T07:10:30.930Z,1.50
2018-02-21T07:12:58.573Z,1.50
2018-02-21T07:15:26.162Z,1.70
2018-02-21T07:17:53.533Z,2.30
2018-02-21T07:20:21.005Z,2.90
2018-02-21T07:22:49.253Z,2.40
2018-02-21T07:25:18.237Z,2.60
2018-02-21T07:27:45.721Z,2.60
2018-02-21T07:30:13.980Z,4.50
2018-02-21T07:32:41.497Z,4.50
2018-02-21T07:35:08.990Z,5.60
2018-02-21T07:37:36.469Z,6.30
2018-02-21T07:40:05.038Z,7.30
2018-02-21T07:42:32.532Z,7.30
2018-02-21T07:45:00.778Z,8.40
2018-02-21T07:47:29.767Z,8.80
2018-02-21T07:49:57.280Z,8.80
2018-02-21T07:52:25.229Z,8.90
2018-02-21T07:54:52.746Z,9.10
2018-02-21T07:57:20.270Z,9.20
2018-02-21T07:59:48.768Z,8.90
2018-02-21T08:02:16.338Z,8.90
2018-02-21T08:04:43.804Z,8.70
2018-02-21T08:07:11.323Z,8.50
2018-02-21T08:09:38.798Z,7.30
2018-02-21T08:12:06.279Z,6.40
2018-02-21T08:14:33.770Z,5.70
2018-02-21T08:17:01.221Z,5.50
2018-02-21T08:19:29.481Z,4.40
2018-02-21T08:21:57.742Z,4.50
2018-02-21T08:24:25.221Z,4.50
2018-02-21T08:26:53.493Z,4.30
2018-02-21T08:29:21.894Z,4.10
2018-02-21T08:31:49.373Z,4.10
2018-02-21T08:34:16.844Z,4.20
2018-02-21T08:36:44.327Z,4.40
2018-02-21T08:39:12.578Z,4.70
2018-02-21T08:41:40.049Z,4.60
2018-02-21T08:44:09.048Z,4.60
2018-02-21T08:46:37.124Z,4.60
2018-02-21T08:49:04.604Z,4.60
2018-02-21T08:51:33.550Z,4.50
2018-02-21T08:54:01.057Z,4.50
2018-02-21T08:56:29.380Z,4.40
2018-02-21T08:58:56.973Z,4.40
2018-02-21T09:01:24.449Z,4.40
2018-02-21T09:03:52.696Z,4.10
2018-02-21T09:06:20.169Z,4.10
2018-02-21T09:08:47.645Z,3.90
2018-02-21T09:11:15.132Z,3.80
2018-02-21T09:13:42.606Z,4.00
2018-02-21T09:16:10.088Z,3.90
2018-02-21T09:18:38.337Z,4.20
2018-02-21T09:21:05.797Z,4.20
2018-02-21T09:23:33.288Z,4.20
2018-02-21T09:26:01.534Z,4.10
2018-02-21T09:28:29.105Z,4.20
2018-02-21T09:30:56.586Z,4.20
2018-02-21T09:33:24.818Z,4.30
2018-02-21T09:35:52.305Z,4.30
2018-02-21T09:38:20.602Z,4.20
2018-02-21T09:40:48.879Z,4.10
2018-02-21T09:43:17.941Z,4.20
2018-02-21T09:45:45.404Z,4.10
2018-02-21T09:48:12.931Z,4.50
2018-02-21T09:50:40.422Z,4.60
2018-02-21T09:53:07.888Z,4.90
2018-02-21T09:55:36.157Z,4.90
2018-02-21T09:58:03.624Z,4.90
2018-02-21T10:00:31.882Z,5.50
2018-02-21T10:03:00.212Z,5.20
2018-02-21T10:05:27.775Z,5.20
2018-02-21T10:07:55.469Z,5.60
2018-02-21T10:10:22.966Z,5.80
2018-02-21T10:12:51.249Z,6.00
2018-02-21T10:15:18.753Z,6.00
2018-02-21T10:17:46.285Z,6.20
2018-02-21T10:20:13.760Z,6.10
2018-02-21T10:22:41.231Z,6.10
2018-02-21T10:25:08.722Z,6.50
2018-02-21T10:27:36.961Z,6.80
2018-02-21T10:30:04.506Z,6.80
2018-02-21T10:32:32.198Z,6.80
2018-02-21T10:34:59.867Z,6.80
2018-02-21T10:37:27.375Z,6.90
2018-02-21T10:39:55.001Z,6.60
2018-02-21T10:42:23.261Z,6.80
2018-02-21T10:44:50.726Z,6.80
2018-02-21T10:47:18.983Z,7.10
2018-02-21T10:49:46.458Z,7.10
2018-02-21T10:52:14.694Z,7.20
2018-02-21T10:54:42.177Z,7.20
2018-02-21T10:57:09.653Z,7.20
2018-02-21T10:59:37.928Z,7.10
2018-02-21T11:02:05.370Z,7.10
2018-02-21T11:04:32.849Z,7.00
2018-02-21T11:07:00.335Z,6.90
2018-02-21T11:09:27.821Z,7.10
2018-02-21T11:11:55.286Z,6.90
2018-02-21T11:14:23.382Z,7.00
2018-02-21T11:16:51.611Z,6.60
2018-02-21T11:19:19.112Z,6.60
2018-02-21T11:21:47.345Z,6.60
2018-02-21T11:24:14.822Z,6.50
2018-02-21T11:26:42.290Z,6.70
2018-02-21T11:29:09.783Z,6.90
2018-02-21T11:31:37.398Z,7.10
2018-02-21T11:34:04.883Z,7.10
2018-02-21T11:36:33.145Z,6.90
2018-02-21T11:39:01.369Z,6.80
2018-02-21T11:41:28.850Z,6.80
2018-02-21T11:43:56.353Z,7.00
2018-02-21T11:46:24.608Z,7.30
2018-02-21T11:48:52.078Z,7.30
2018-02-21T11:51:20.302Z,7.40
2018-02-21T11:53:47.798Z,7.40
2018-02-21T11:56:15.279Z,7.50
2018-02-21T11:58:43.523Z,7.40
2018-02-21T12:01:10.989Z,7.40
2018-02-21T12:03:39.285Z,7.30
2018-02-21T12:06:06.771Z,7.30
2018-02-21T12:08:34.247Z,7.30
2018-02-21T12:11:01.721Z,7.50
2018-02-21T12:13:29.198Z,7.60
2018-02-21T12:15:57.573Z,8.60
2018-02-21T12:18:25.075Z,8.70
2018-02-21T12:20:52.696Z,9.10
2018-02-21T12:23:20.937Z,10.30
2018-02-21T12:25:48.423Z,10.30
2018-02-21T12:28:15.891Z,11.00
2018-02-21T12:30:44.158Z,11.30
2018-02-21T12:33:12.386Z,10.90
2018-02-21T12:35:39.865Z,10.90
2018-02-21T12:38:07.360Z,10.50
2018-02-21T12:40:41.495Z,10.20
2018-02-21T12:43:08.969Z,10.20
2018-02-21T12:45:36.458Z,10.70
2018-02-21T12:48:03.926Z,10.80
2018-02-21T12:50:31.410Z,10.80
2018-02-21T12:52:58.896Z,11.20
2018-02-21T12:55:26.438Z,10.60
2018-02-21T12:57:53.881Z,10.50
2018-02-21T13:00:21.364Z,10.10
2018-02-21T13:02:48.956Z,10.10
2018-02-21T13:05:16.434Z,10.10
2018-02-21T13:07:44.694Z,9.80
2018-02-21T13:10:12.180Z,9.70
2018-02-21T13:12:40.445Z,9.70
2018-02-21T13:15:08.808Z,9.50
2018-02-21T13:17:36.353Z,9.50
2018-02-21T13:20:03.862Z,9.10
2018-02-21T13:22:31.489Z,9.30
2018-02-21T13:24:58.979Z,9.10
2018-02-21T13:27:26.456Z,9.50
2018-02-21T13:29:54.064Z,9.00
2018-02-21T13:32:22.300Z,9.20
2018-02-21T13:34:49.793Z,9.10
2018-02-21T13:37:17.276Z,8.90
2018-02-21T13:39:45.736Z,8.40
2018-02-21T13:42:13.207Z,8.30
2018-02-21T13:44:41.450Z,8.30
2018-02-21T13:47:09.013Z,8.30
2018-02-21T13:49:36.516Z,8.40
2018-02-21T13:52:04.122Z,8.40
2018-02-21T13:54:31.607Z,8.20
2018-02-21T13:56:59.917Z,8.20
2018-02-21T13:59:28.073Z,8.30
2018-02-21T14:01:56.339Z,8.10
2018-02-21T14:04:24.607Z,8.40
2018-02-21T14:06:52.078Z,8.30
2018-02-21T14:09:20.391Z,8.20
2018-02-21T14:11:47.887Z,8.20
2018-02-21T14:14:15.367Z,8.30
2018-02-21T14:16:43.633Z,8.70
2018-02-21T14:19:11.870Z,8.70
2018-02-21T14:21:39.374Z,8.80
2018-02-21T14:24:07.608Z,8.40
2018-02-21T14:26:35.088Z,8.30
2018-02-21T14:29:02.565Z,8.10
2018-02-21T14:31:30.821Z,7.60
2018-02-21T14:33:59.221Z,7.60
2018-02-21T14:36:26.724Z,7.60
2018-02-21T14:38:54.198Z,7.80
2018-02-21T14:41:22.319Z,7.90
2018-02-21T14:43:49.807Z,7.70
2018-02-21T14:46:17.262Z,7.80
2018-02-21T14:48:45.597Z,7.90
2018-02-21T14:51:13.841Z,7.80
2018-02-21T14:53:41.447Z,7.80
2018-02-21T14:56:09.078Z,7.70
2018-02-21T14:58:37.305Z,7.80
2018-02-21T15:01:04.785Z,7.50
2018-02-21T15:03:32.268Z,7.40
2018-02-21T15:05:59.735Z,7.40
2018-02-21T15:08:27.979Z,6.80
2018-02-21T15:10:55.508Z,6.80
2018-02-21T15:13:23.296Z,7.10
2018-02-21T15:15:51.121Z,7.00
2018-02-21T15:18:18.717Z,6.80
2018-02-21T15:20:47.060Z,6.50
2018-02-21T15:23:14.749Z,6.50
2018-02-21T15:25:42.321Z,6.30
2018-02-21T15:28:09.909Z,6.30
2018-02-21T15:30:37.929Z,6.40
2018-02-21T15:33:05.658Z,6.40
2018-02-21T15:35:33.206Z,6.20
2018-02-21T15:38:00.774Z,6.20
2018-02-21T15:40:28.372Z,6.30
2018-02-21T15:42:56.650Z,6.10
2018-02-21T15:45:24.277Z,6.10
2018-02-21T15:47:52.529Z,6.30
2018-02-21T15:50:20.093Z,6.30
2018-02-21T15:52:48.341Z,6.10
2018-02-21T15:55:15.844Z,6.10
2018-02-21T15:57:44.075Z,5.90
2018-02-21T16:00:11.561Z,5.90
2018-02-21T16:02:39.795Z,5.80
2018-02-21T16:05:07.501Z,5.70
2018-02-21T16:07:35.832Z,5.60
2018-02-21T16:10:03.331Z,5.50
2018-02-21T16:12:30.822Z,5.60
2018-02-21T16:14:58.358Z,5.50
2018-02-21T16:17:26.599Z,5.60
2018-02-21T16:19:54.063Z,5.60
2018-02-21T16:22:21.544Z,5.50
2018-02-21T16:24:49.855Z,5.30
2018-02-21T16:27:17.382Z,5.30
2018-02-21T16:29:45.620Z,5.10
2018-02-21T16:32:13.089Z,5.10
2018-02-21T16:34:40.574Z,5.10
2018-02-21T16:37:08.816Z,5.10
2018-02-21T16:39:36.297Z,5.10
2018-02-21T16:42:04.555Z,5.20
2018-02-21T16:44:32.035Z,5.10
2018-02-21T16:47:00.586Z,5.00
2018-02-21T16:49:28.191Z,5.00
2018-02-21T16:51:56.556Z,5.00
2018-02-21T16:54:26.790Z,5.00
2018-02-21T16:56:54.342Z,4.90
2018-02-21T16:59:22.019Z,4.90
2018-02-21T17:01:49.558Z,4.80
2018-02-21T17:04:17.060Z,4.70
2018-02-21T17:06:44.571Z,4.70
2018-02-21T17:09:12.938Z,4.70
2018-02-21T17:11:41.685Z,4.70
2018-02-21T17:14:09.170Z,4.70
2018-02-21T17:16:36.643Z,4.70
2018-02-21T17:19:04.966Z,4.70
2018-02-21T17:21:32.570Z,4.70
2018-02-21T17:24:00.838Z,4.60
2018-02-21T17:26:28.335Z,4.60
2018-02-21T17:28:56.575Z,4.60
2018-02-21T17:31:24.089Z,4.60
2018-02-21T17:33:51.552Z,4.70
2018-02-21T17:36:19.789Z,4.60
2018-02-21T17:38:48.183Z,4.60
2018-02-21T17:41:21.298Z,4.60
2018-02-21T17:43:48.781Z,4.60
2018-02-21T17:46:16.265Z,4.60
2018-02-21T17:48:44.497Z,4.50
2018-02-21T17:51:11.980Z,4.40
2018-02-21T17:53:39.448Z,4.40
2018-02-21T17:56:07.705Z,4.40
2018-02-21T17:58:35.332Z,4.40
2018-02-21T18:01:02.827Z,4.40
2018-02-21T18:03:30.318Z,4.30
2018-02-21T18:05:57.818Z,4.20
2018-02-21T18:08:25.306Z,4.20
2018-02-21T18:10:52.798Z,4.20
2018-02-21T18:13:20.291Z,4.10
2018-02-21T18:15:47.759Z,4.20
2018-02-21T18:18:15.246Z,4.20
2018-02-21T18:20:43.592Z,4.20
2018-02-21T18:23:11.234Z,4.20
2018-02-21T18:25:38.804Z,4.30
2018-02-21T18:28:06.375Z,4.20
2018-02-21T18:30:33.828Z,4.10
2018-02-21T18:33:01.482Z,4.10
2018-02-21T18:35:29.137Z,4.10
2018-02-21T18:37:56.788Z,4.00
2018-02-21T18:40:24.342Z,4.00
2018-02-21T18:42:51.880Z,4.00
2018-02-21T18:45:19.350Z,3.90
2018-02-21T18:47:46.803Z,4.00
2018-02-21T18:50:14.293Z,4.00
2018-02-21T18:52:41.761Z,4.00
2018-02-21T18:55:09.254Z,4.00
2018-02-21T18:57:37.539Z,3.90
2018-02-21T19:00:05.994Z,3.90
2018-02-21T19:02:33.476Z,3.90
2018-02-21T19:05:01.746Z,3.80
2018-02-21T19:07:30.899Z,3.80
2018-02-21T19:09:59.118Z,3.90
2018-02-21T19:12:27.349Z,3.80
2018-02-21T19:14:54.875Z,3.80
2018-02-21T19:17:22.472Z,3.70
2018-02-21T19:19:49.941Z,3.70
2018-02-21T19:22:17.422Z,3.60
2018-02-21T19:24:45.685Z,3.60
2018-02-21T19:27:13.933Z,3.60
2018-02-21T19:29:41.421Z,3.60
2018-02-21T19:32:09.688Z,3.50
2018-02-21T19:34:37.157Z,3.50
2018-02-21T19:37:05.406Z,3.50
2018-02-21T19:39:32.894Z,3.50
2018-02-21T19:42:01.134Z,3.50
2018-02-21T19:44:28.616Z,3.40
2018-02-21T19:46:56.090Z,3.40
2018-02-21T19:49:24.360Z,3.50
2018-02-21T19:51:52.633Z,3.50
2018-02-21T19:54:20.890Z,3.40
2018-02-21T19:56:48.358Z,3.40
2018-02-21T19:59:15.866Z,3.40
2018-02-21T20:01:43.342Z,3.20
2018-02-21T20:04:10.834Z,3.30
2018-02-21T20:06:39.066Z,3.40
2018-02-21T20:09:06.559Z,3.40
2018-02-21T20:11:34.041Z,3.30
2018-02-21T20:14:02.281Z,3.20
2018-02-21T20:16:31.277Z,3.20
2018-02-21T20:18:59.561Z,3.20
2018-02-21T20:21:27.029Z,3.20
2018-02-21T20:23:55.287Z,3.20
2018-02-21T20:26:22.746Z,3.20
2018-02-21T20:28:50.221Z,3.30
2018-02-21T20:31:18.550Z,3.40
2018-02-21T20:33:46.013Z,3.40
2018-02-21T20:36:13.513Z,3.30
2018-02-21T20:38:42.640Z,3.10
2018-02-21T20:41:10.125Z,3.10
2018-02-21T20:43:37.644Z,3.10
2018-02-21T20:46:05.133Z,3.10
2018-02-21T20:48:32.603Z,3.10
2018-02-21T20:51:00.209Z,3.00
2018-02-21T20:53:27.858Z,3.10
2018-02-21T20:55:56.240Z,3.10
2018-02-21T20:58:24.569Z,3.10
2018-02-21T21:00:52.073Z,3.00
2018-02-21T21:03:20.322Z,3.10
2018-02-21T21:05:47.844Z,3.10
2018-02-21T21:08:15.385Z,3.00
2018-02-21T21:10:42.866Z,3.00
2018-02-21T21:13:10.396Z,3.00
2018-02-21T21:15:37.881Z,3.00
2018-02-21T21:18:05.362Z,3.00
2018-02-21T21:20:32.860Z,2.80
2018-02-21T21:23:01.116Z,3.00
2018-02-21T21:25:29.376Z,3.10
2018-02-21T21:27:58.384Z,3.00
2018-02-21T21:30:25.860Z,3.00
2018-02-21T21:32:54.125Z,2.90
2018-02-21T21:35:22.365Z,2.80
2018-02-21T21:37:49.825Z,2.80
2018-02-21T21:40:17.302Z,2.90
2018-02-21T21:42:45.539Z,2.80
2018-02-21T21:45:13.089Z,2.80
2018-02-21T21:47:40.676Z,2.90
2018-02-21T21:50:08.262Z,2.90
2018-02-21T21:52:35.757Z,2.90
2018-02-21T21:55:03.255Z,2.90
2018-02-21T21:57:30.694Z,2.90
2018-02-21T21:59:58.175Z,2.90
2018-02-21T22:02:25.649Z,2.80
2018-02-21T22:04:53.903Z,2.60
2018-02-21T22:07:21.557Z,2.60
2018-02-21T22:09:50.161Z,2.70
2018-02-21T22:12:17.633Z,2.70
2018-02-21T22:14:45.886Z,2.70
2018-02-21T22:17:13.348Z,2.70
2018-02-21T22:19:40.829Z,2.60
2018-02-21T22:22:09.061Z,2.40
2018-02-21T22:24:36.576Z,2.40
2018-02-21T22:27:04.054Z,2.30
2018-02-21T22:29:31.553Z,2.30
2018-02-21T22:31:59.048Z,2.30
2018-02-21T22:34:26.509Z,2.20
2018-02-21T22:36:53.966Z,2.30
2018-02-21T22:39:21.460Z,2.10
2018-02-21T22:41:48.936Z,2.20
2018-02-21T22:44:16.431Z,2.10
2018-02-21T22:46:43.915Z,2.10
2018-02-21T22:49:11.409Z,2.10
2018-02-21T22:51:38.997Z,2.10
2018-02-21T22:54:06.543Z,2.00
2018-02-21T22:56:34.832Z,2.00
2018-02-21T22:59:03.056Z,1.90
2018-02-21T23:01:30.537Z,1.90
2018-02-21T23:03:58.009Z,2.00
2018-02-21T23:06:26.264Z,1.90
2018-02-21T23:08:55.262Z,1.90
2018-02-21T23:11:22.729Z,1.90
2018-02-21T23:13:51.046Z,2.00
2018-02-21T23:16:18.508Z,2.00
2018-02-21T23:18:45.982Z,1.90
2018-02-21T23:21:13.448Z,1.80
2018-02-21T23:23:40.915Z,1.80
2018-02-21T23:26:08.381Z,1.70
2018-02-21T23:28:36.913Z,1.60
2018-02-21T23:31:04.373Z,1.60
2018-02-21T23:33:31.928Z,1.70
2018-02-21T23:35:59.610Z,1.80
2018-02-21T23:38:27.129Z,1.80
2018-02-21T23:40:54.614Z,1.80
2018-02-21T23:43:22.090Z,1.80
2018-02-21T23:45:51.018Z,1.80
2018-02-21T23:48:19.249Z,1.70
2018-02-21T23:50:46.725Z,1.70
2018-02-21T23:53:14.308Z,1.80
2018-02-21T23:55:41.781Z,1.70
2018-02-21T23:58:09.256Z,1.70
